sensor_id;sensor_type;location;lat;lon;timestamp;temperature;humidity
25360;DHT22;13311;51.386;0.016;2023-04-19T00:04:54;11.10;98.40
25360;DHT22;13311;51.386;0.016;2023-04-19T00:09:54;11.10;98.50
25360;DHT22;13311;51.386;0.016;2023-04-19T00:14:55;11.10;98.60
25360;DHT22;13311;51.386;0.016;2023-04-19T00:19:56;11.10;98.70
25360;DHT22;13311;51.386;0.016;2023-04-19T00:24:57;11.10;98.40
25360;DHT22;13311;51.386;0.016;2023-04-19T00:29:58;11.10;98.70
25360;DHT22;13311;51.386;0.016;2023-04-19T00:34:58;11.10;98.70
25360;DHT22;13311;51.386;0.016;2023-04-19T00:39:59;11.10;98.70
25360;DHT22;13311;51.386;0.016;2023-04-19T00:45:00;11.10;98.50
25360;DHT22;13311;51.386;0.016;2023-04-19T00:50:02;11.20;98.50
25360;DHT22;13311;51.386;0.016;2023-04-19T00:55:04;11.10;98.30
25360;DHT22;13311;51.386;0.016;2023-04-19T01:00:05;11.10;98.30
25360;DHT22;13311;51.386;0.016;2023-04-19T01:05:09;11.10;98.40
25360;DHT22;13311;51.386;0.016;2023-04-19T01:10:10;11.10;98.50
25360;DHT22;13311;51.386;0.016;2023-04-19T01:15:11;11.00;98.50
25360;DHT22;13311;51.386;0.016;2023-04-19T01:20:11;11.10;98.60
25360;DHT22;13311;51.386;0.016;2023-04-19T01:25:12;11.10;98.50
25360;DHT22;13311;51.386;0.016;2023-04-19T01:30:13;11.10;98.30
25360;DHT22;13311;51.386;0.016;2023-04-19T01:35:14;11.10;98.10
25360;DHT22;13311;51.386;0.016;2023-04-19T01:40:15;11.10;98.10
25360;DHT22;13311;51.386;0.016;2023-04-19T01:45:16;11.10;97.80
25360;DHT22;13311;51.386;0.016;2023-04-19T01:50:17;11.00;97.60
25360;DHT22;13311;51.386;0.016;2023-04-19T01:55:18;11.00;97.40
25360;DHT22;13311;51.386;0.016;2023-04-19T02:00:19;10.90;97.30
25360;DHT22;13311;51.386;0.016;2023-04-19T02:05:20;10.90;97.50
25360;DHT22;13311;51.386;0.016;2023-04-19T02:10:20;10.90;97.50
25360;DHT22;13311;51.386;0.016;2023-04-19T02:15:21;10.90;97.80
25360;DHT22;13311;51.386;0.016;2023-04-19T02:20:22;10.80;98.60
25360;DHT22;13311;51.386;0.016;2023-04-19T02:25:24;10.80;99.10
25360;DHT22;13311;51.386;0.016;2023-04-19T02:30:25;10.90;99.10
25360;DHT22;13311;51.386;0.016;2023-04-19T02:35:26;10.90;99.40
25360;DHT22;13311;51.386;0.016;2023-04-19T02:40:26;10.90;99.40
25360;DHT22;13311;51.386;0.016;2023-04-19T02:45:27;10.90;99.20
25360;DHT22;13311;51.386;0.016;2023-04-19T02:50:28;11.00;99.20
25360;DHT22;13311;51.386;0.016;2023-04-19T02:55:28;11.00;99.00
25360;DHT22;13311;51.386;0.016;2023-04-19T03:00:29;11.10;98.90
25360;DHT22;13311;51.386;0.016;2023-04-19T03:05:30;11.10;98.70
25360;DHT22;13311;51.386;0.016;2023-04-19T03:10:31;11.10;98.60
25360;DHT22;13311;51.386;0.016;2023-04-19T03:15:32;11.00;98.80
25360;DHT22;13311;51.386;0.016;2023-04-19T03:20:32;11.00;99.00
25360;DHT22;13311;51.386;0.016;2023-04-19T03:25:33;10.90;98.90
25360;DHT22;13311;51.386;0.016;2023-04-19T03:30:34;11.00;99.00
25360;DHT22;13311;51.386;0.016;2023-04-19T03:35:35;10.90;99.10
25360;DHT22;13311;51.386;0.016;2023-04-19T03:40:38;10.90;99.10
25360;DHT22;13311;51.386;0.016;2023-04-19T03:45:39;10.80;99.20
25360;DHT22;13311;51.386;0.016;2023-04-19T03:50:40;10.70;99.60
25360;DHT22;13311;51.386;0.016;2023-04-19T03:55:40;10.50;99.80
25360;DHT22;13311;51.386;0.016;2023-04-19T04:00:41;10.50;99.80
25360;DHT22;13311;51.386;0.016;2023-04-19T04:05:42;10.50;99.80
25360;DHT22;13311;51.386;0.016;2023-04-19T04:10:43;10.40;99.90
25360;DHT22;13311;51.386;0.016;2023-04-19T04:15:43;10.30;99.90
25360;DHT22;13311;51.386;0.016;2023-04-19T04:20:44;10.40;99.90
25360;DHT22;13311;51.386;0.016;2023-04-19T04:25:45;10.30;99.90
25360;DHT22;13311;51.386;0.016;2023-04-19T04:30:46;10.30;99.90
25360;DHT22;13311;51.386;0.016;2023-04-19T04:35:47;10.30;99.90
25360;DHT22;13311;51.386;0.016;2023-04-19T04:40:52;10.30;99.90
25360;DHT22;13311;51.386;0.016;2023-04-19T04:45:53;10.30;99.90
25360;DHT22;13311;51.386;0.016;2023-04-19T04:50:55;10.30;99.90
25360;DHT22;13311;51.386;0.016;2023-04-19T04:55:55;10.30;99.90
25360;DHT22;13311;51.386;0.016;2023-04-19T05:00:56;10.20;99.90
25360;DHT22;13311;51.386;0.016;2023-04-19T05:05:57;10.10;99.90
25360;DHT22;13311;51.386;0.016;2023-04-19T05:10:57;10.20;99.90
25360;DHT22;13311;51.386;0.016;2023-04-19T05:15:58;10.30;99.90
25360;DHT22;13311;51.386;0.016;2023-04-19T05:20:59;10.30;99.90
25360;DHT22;13311;51.386;0.016;2023-04-19T05:26:00;10.30;99.90
25360;DHT22;13311;51.386;0.016;2023-04-19T05:31:00;10.30;99.90
25360;DHT22;13311;51.386;0.016;2023-04-19T05:36:01;10.30;99.90
25360;DHT22;13311;51.386;0.016;2023-04-19T05:41:03;10.20;99.90
25360;DHT22;13311;51.386;0.016;2023-04-19T05:46:04;10.30;99.90
25360;DHT22;13311;51.386;0.016;2023-04-19T05:51:04;10.40;99.90
25360;DHT22;13311;51.386;0.016;2023-04-19T05:56:06;10.50;99.90
25360;DHT22;13311;51.386;0.016;2023-04-19T06:01:06;10.70;99.90
25360;DHT22;13311;51.386;0.016;2023-04-19T06:06:07;10.90;99.90
25360;DHT22;13311;51.386;0.016;2023-04-19T06:11:08;11.30;99.90
25360;DHT22;13311;51.386;0.016;2023-04-19T06:16:09;11.80;99.30
25360;DHT22;13311;51.386;0.016;2023-04-19T06:21:09;12.30;98.60
25360;DHT22;13311;51.386;0.016;2023-04-19T06:26:10;12.70;97.40
25360;DHT22;13311;51.386;0.016;2023-04-19T06:31:11;12.90;97.00
25360;DHT22;13311;51.386;0.016;2023-04-19T06:36:11;13.00;96.60
25360;DHT22;13311;51.386;0.016;2023-04-19T06:41:12;13.30;96.50
25360;DHT22;13311;51.386;0.016;2023-04-19T06:46:13;13.60;96.00
25360;DHT22;13311;51.386;0.016;2023-04-19T06:51:15;13.70;95.40
25360;DHT22;13311;51.386;0.016;2023-04-19T06:56:15;13.80;95.30
25360;DHT22;13311;51.386;0.016;2023-04-19T07:01:16;13.80;95.10
25360;DHT22;13311;51.386;0.016;2023-04-19T07:06:18;13.60;94.90
25360;DHT22;13311;51.386;0.016;2023-04-19T07:11:18;13.20;95.80
25360;DHT22;13311;51.386;0.016;2023-04-19T07:16:20;12.90;96.40
25360;DHT22;13311;51.386;0.016;2023-04-19T07:21:20;12.70;97.10
25360;DHT22;13311;51.386;0.016;2023-04-19T07:26:24;12.60;97.50
25360;DHT22;13311;51.386;0.016;2023-04-19T07:31:26;12.70;97.70
25360;DHT22;13311;51.386;0.016;2023-04-19T07:36:27;12.70;97.90
25360;DHT22;13311;51.386;0.016;2023-04-19T07:41:27;12.60;97.80
25360;DHT22;13311;51.386;0.016;2023-04-19T07:46:28;12.50;98.10
25360;DHT22;13311;51.386;0.016;2023-04-19T07:51:29;12.50;98.20
25360;DHT22;13311;51.386;0.016;2023-04-19T07:56:30;12.70;97.90
25360;DHT22;13311;51.386;0.016;2023-04-19T08:01:31;12.80;98.10
25360;DHT22;13311;51.386;0.016;2023-04-19T08:06:32;12.80;97.80
25360;DHT22;13311;51.386;0.016;2023-04-19T08:11:33;12.80;98.00
25360;DHT22;13311;51.386;0.016;2023-04-19T08:16:33;12.80;98.00
25360;DHT22;13311;51.386;0.016;2023-04-19T08:21:35;12.90;97.90
25360;DHT22;13311;51.386;0.016;2023-04-19T08:26:36;12.80;97.70
25360;DHT22;13311;51.386;0.016;2023-04-19T08:31:38;12.80;98.00
25360;DHT22;13311;51.386;0.016;2023-04-19T08:36:39;12.90;97.90
25360;DHT22;13311;51.386;0.016;2023-04-19T08:41:39;12.80;97.60
25360;DHT22;13311;51.386;0.016;2023-04-19T08:46:41;12.70;98.20
25360;DHT22;13311;51.386;0.016;2023-04-19T08:51:43;12.80;97.90
25360;DHT22;13311;51.386;0.016;2023-04-19T08:56:44;12.80;97.70
25360;DHT22;13311;51.386;0.016;2023-04-19T09:01:45;13.00;97.40
25360;DHT22;13311;51.386;0.016;2023-04-19T09:06:45;13.20;97.20
25360;DHT22;13311;51.386;0.016;2023-04-19T09:11:46;13.20;97.00
25360;DHT22;13311;51.386;0.016;2023-04-19T09:16:47;13.30;97.10
25360;DHT22;13311;51.386;0.016;2023-04-19T09:21:51;13.30;97.20
25360;DHT22;13311;51.386;0.016;2023-04-19T09:26:53;13.30;97.20
25360;DHT22;13311;51.386;0.016;2023-04-19T09:31:57;13.20;97.20
25360;DHT22;13311;51.386;0.016;2023-04-19T09:37:11;13.10;97.50
25360;DHT22;13311;51.386;0.016;2023-04-19T09:42:13;13.20;97.40
25360;DHT22;13311;51.386;0.016;2023-04-19T09:47:27;13.00;97.50
25360;DHT22;13311;51.386;0.016;2023-04-19T09:52:29;13.20;97.40
25360;DHT22;13311;51.386;0.016;2023-04-19T09:57:32;13.30;97.30
25360;DHT22;13311;51.386;0.016;2023-04-19T10:02:34;13.50;96.90
25360;DHT22;13311;51.386;0.016;2023-04-19T10:07:36;13.50;96.60
25360;DHT22;13311;51.386;0.016;2023-04-19T10:12:37;13.70;96.50
25360;DHT22;13311;51.386;0.016;2023-04-19T10:17:38;13.80;96.40
25360;DHT22;13311;51.386;0.016;2023-04-19T10:22:39;13.70;96.50
25360;DHT22;13311;51.386;0.016;2023-04-19T10:27:42;13.80;96.20
25360;DHT22;13311;51.386;0.016;2023-04-19T10:32:53;13.80;96.00
25360;DHT22;13311;51.386;0.016;2023-04-19T10:38:12;13.80;96.00
25360;DHT22;13311;51.386;0.016;2023-04-19T10:43:16;13.90;95.80
25360;DHT22;13311;51.386;0.016;2023-04-19T10:53:45;14.20;95.70
25360;DHT22;13311;51.386;0.016;2023-04-19T11:09:35;14.30;95.90
25360;DHT22;13311;51.386;0.016;2023-04-19T11:14:45;14.70;95.20
25360;DHT22;13311;51.386;0.016;2023-04-19T11:19:56;15.10;94.60
25360;DHT22;13311;51.386;0.016;2023-04-19T11:30:27;16.00;92.60
25360;DHT22;13311;51.386;0.016;2023-04-19T11:35:29;16.00;92.20
25360;DHT22;13311;51.386;0.016;2023-04-19T11:40:30;16.10;92.30
25360;DHT22;13311;51.386;0.016;2023-04-19T11:45:36;15.90;92.60
25360;DHT22;13311;51.386;0.016;2023-04-19T11:50:44;15.90;92.80
25360;DHT22;13311;51.386;0.016;2023-04-19T11:55:46;16.00;92.30
25360;DHT22;13311;51.386;0.016;2023-04-19T12:00:48;16.10;92.10
25360;DHT22;13311;51.386;0.016;2023-04-19T12:05:56;16.00;91.20
25360;DHT22;13311;51.386;0.016;2023-04-19T12:10:59;15.80;92.20
25360;DHT22;13311;51.386;0.016;2023-04-19T12:16:00;16.10;91.80
25360;DHT22;13311;51.386;0.016;2023-04-19T12:21:02;16.10;91.10
25360;DHT22;13311;51.386;0.016;2023-04-19T12:26:05;16.10;91.30
25360;DHT22;13311;51.386;0.016;2023-04-19T12:31:06;16.00;91.00
25360;DHT22;13311;51.386;0.016;2023-04-19T12:36:07;16.20;90.50
25360;DHT22;13311;51.386;0.016;2023-04-19T12:41:08;16.50;91.00
25360;DHT22;13311;51.386;0.016;2023-04-19T12:46:09;16.90;88.80
25360;DHT22;13311;51.386;0.016;2023-04-19T12:51:10;17.00;87.50
25360;DHT22;13311;51.386;0.016;2023-04-19T12:56:11;16.70;87.80
25360;DHT22;13311;51.386;0.016;2023-04-19T13:01:11;16.80;86.70
25360;DHT22;13311;51.386;0.016;2023-04-19T13:06:12;16.90;87.10
25360;DHT22;13311;51.386;0.016;2023-04-19T13:11:15;17.10;85.40
25360;DHT22;13311;51.386;0.016;2023-04-19T13:16:17;17.00;85.30
25360;DHT22;13311;51.386;0.016;2023-04-19T13:21:18;17.00;84.60
25360;DHT22;13311;51.386;0.016;2023-04-19T13:26:19;16.50;86.40
25360;DHT22;13311;51.386;0.016;2023-04-19T13:31:20;16.30;88.40
25360;DHT22;13311;51.386;0.016;2023-04-19T13:36:21;16.40;88.40
25360;DHT22;13311;51.386;0.016;2023-04-19T13:41:21;16.40;89.90
25360;DHT22;13311;51.386;0.016;2023-04-19T13:46:22;16.40;89.20
25360;DHT22;13311;51.386;0.016;2023-04-19T13:51:23;16.30;88.40
25360;DHT22;13311;51.386;0.016;2023-04-19T13:56:26;16.00;89.30
25360;DHT22;13311;51.386;0.016;2023-04-19T14:01:26;15.90;90.30
25360;DHT22;13311;51.386;0.016;2023-04-19T14:06:27;15.80;91.00
25360;DHT22;13311;51.386;0.016;2023-04-19T14:11:28;15.80;89.60
25360;DHT22;13311;51.386;0.016;2023-04-19T14:16:29;15.30;90.40
25360;DHT22;13311;51.386;0.016;2023-04-19T14:21:30;15.30;90.10
25360;DHT22;13311;51.386;0.016;2023-04-19T14:26:31;15.20;90.00
25360;DHT22;13311;51.386;0.016;2023-04-19T14:31:32;15.20;88.90
25360;DHT22;13311;51.386;0.016;2023-04-19T14:36:33;15.10;87.70
25360;DHT22;13311;51.386;0.016;2023-04-19T14:41:34;14.90;87.80
25360;DHT22;13311;51.386;0.016;2023-04-19T14:46:35;14.80;88.10
25360;DHT22;13311;51.386;0.016;2023-04-19T14:51:35;14.60;88.20
25360;DHT22;13311;51.386;0.016;2023-04-19T14:56:37;14.50;88.00
25360;DHT22;13311;51.386;0.016;2023-04-19T15:01:38;14.50;88.40
25360;DHT22;13311;51.386;0.016;2023-04-19T15:06:38;14.60;87.20
25360;DHT22;13311;51.386;0.016;2023-04-19T15:11:40;14.30;87.50
25360;DHT22;13311;51.386;0.016;2023-04-19T15:16:41;14.30;86.10
25360;DHT22;13311;51.386;0.016;2023-04-19T15:21:42;14.30;85.00
25360;DHT22;13311;51.386;0.016;2023-04-19T15:26:43;14.40;84.40
25360;DHT22;13311;51.386;0.016;2023-04-19T15:31:43;14.40;82.50
25360;DHT22;13311;51.386;0.016;2023-04-19T15:36:44;14.10;82.90
25360;DHT22;13311;51.386;0.016;2023-04-19T15:41:45;14.00;82.80
25360;DHT22;13311;51.386;0.016;2023-04-19T15:46:45;14.00;83.90
25360;DHT22;13311;51.386;0.016;2023-04-19T15:51:46;14.00;84.30
25360;DHT22;13311;51.386;0.016;2023-04-19T15:56:47;13.90;83.20
25360;DHT22;13311;51.386;0.016;2023-04-19T16:01:48;13.80;84.40
25360;DHT22;13311;51.386;0.016;2023-04-19T16:06:48;13.80;84.40
25360;DHT22;13311;51.386;0.016;2023-04-19T16:11:50;13.70;84.00
25360;DHT22;13311;51.386;0.016;2023-04-19T16:16:51;13.80;82.70
25360;DHT22;13311;51.386;0.016;2023-04-19T16:21:53;13.90;82.20
25360;DHT22;13311;51.386;0.016;2023-04-19T16:26:53;14.10;80.70
25360;DHT22;13311;51.386;0.016;2023-04-19T16:31:54;14.10;78.90
25360;DHT22;13311;51.386;0.016;2023-04-19T16:36:55;14.10;77.60
25360;DHT22;13311;51.386;0.016;2023-04-19T16:41:55;13.80;74.80
25360;DHT22;13311;51.386;0.016;2023-04-19T16:46:56;13.70;76.80
25360;DHT22;13311;51.386;0.016;2023-04-19T16:51:57;13.70;76.70
25360;DHT22;13311;51.386;0.016;2023-04-19T16:56:58;13.70;78.00
25360;DHT22;13311;51.386;0.016;2023-04-19T17:01:59;13.60;77.00
25360;DHT22;13311;51.386;0.016;2023-04-19T17:06:59;13.60;76.20
25360;DHT22;13311;51.386;0.016;2023-04-19T17:12:00;13.50;75.80
25360;DHT22;13311;51.386;0.016;2023-04-19T17:17:01;13.50;76.50
25360;DHT22;13311;51.386;0.016;2023-04-19T17:22:02;13.30;76.10
25360;DHT22;13311;51.386;0.016;2023-04-19T17:27:04;13.20;76.00
25360;DHT22;13311;51.386;0.016;2023-04-19T17:32:05;13.30;78.00
25360;DHT22;13311;51.386;0.016;2023-04-19T17:37:07;13.30;75.20
25360;DHT22;13311;51.386;0.016;2023-04-19T17:42:07;13.30;77.70
25360;DHT22;13311;51.386;0.016;2023-04-19T17:47:08;13.30;75.60
25360;DHT22;13311;51.386;0.016;2023-04-19T17:52:09;13.10;76.30
25360;DHT22;13311;51.386;0.016;2023-04-19T17:57:09;13.10;77.10
25360;DHT22;13311;51.386;0.016;2023-04-19T18:02:10;13.10;77.10
25360;DHT22;13311;51.386;0.016;2023-04-19T18:07:11;12.90;77.10
25360;DHT22;13311;51.386;0.016;2023-04-19T18:12:12;12.80;77.40
25360;DHT22;13311;51.386;0.016;2023-04-19T18:17:12;12.90;77.40
25360;DHT22;13311;51.386;0.016;2023-04-19T18:22:13;12.90;77.70
25360;DHT22;13311;51.386;0.016;2023-04-19T18:27:14;12.90;78.30
25360;DHT22;13311;51.386;0.016;2023-04-19T18:32:15;12.90;80.10
25360;DHT22;13311;51.386;0.016;2023-04-19T18:37:16;12.90;82.20
25360;DHT22;13311;51.386;0.016;2023-04-19T18:42:16;12.80;83.00
25360;DHT22;13311;51.386;0.016;2023-04-19T18:47:17;12.80;84.00
25360;DHT22;13311;51.386;0.016;2023-04-19T18:52:18;12.60;84.80
25360;DHT22;13311;51.386;0.016;2023-04-19T18:57:19;12.50;85.80
25360;DHT22;13311;51.386;0.016;2023-04-19T19:02:19;12.50;87.00
25360;DHT22;13311;51.386;0.016;2023-04-19T19:07:20;12.40;87.80
25360;DHT22;13311;51.386;0.016;2023-04-19T19:12:21;12.40;88.30
25360;DHT22;13311;51.386;0.016;2023-04-19T19:17:22;12.30;88.90
25360;DHT22;13311;51.386;0.016;2023-04-19T19:22:25;12.20;89.50
25360;DHT22;13311;51.386;0.016;2023-04-19T19:27:26;12.10;89.50
25360;DHT22;13311;51.386;0.016;2023-04-19T19:32:27;11.80;90.20
25360;DHT22;13311;51.386;0.016;2023-04-19T19:37:28;11.80;90.30
25360;DHT22;13311;51.386;0.016;2023-04-19T19:42:28;11.80;90.00
25360;DHT22;13311;51.386;0.016;2023-04-19T19:47:29;11.70;89.80
25360;DHT22;13311;51.386;0.016;2023-04-19T19:52:34;11.80;89.80
25360;DHT22;13311;51.386;0.016;2023-04-19T19:57:35;11.70;89.20
25360;DHT22;13311;51.386;0.016;2023-04-19T20:02:37;11.70;89.40
25360;DHT22;13311;51.386;0.016;2023-04-19T20:07:40;11.60;90.00
25360;DHT22;13311;51.386;0.016;2023-04-19T20:12:42;11.60;89.80
25360;DHT22;13311;51.386;0.016;2023-04-19T20:17:43;11.30;89.80
25360;DHT22;13311;51.386;0.016;2023-04-19T20:22:44;11.20;90.10
25360;DHT22;13311;51.386;0.016;2023-04-19T20:27:45;11.10;90.30
25360;DHT22;13311;51.386;0.016;2023-04-19T20:32:46;10.90;90.40
25360;DHT22;13311;51.386;0.016;2023-04-19T20:37:49;10.90;90.50
25360;DHT22;13311;51.386;0.016;2023-04-19T20:42:50;10.80;90.40
25360;DHT22;13311;51.386;0.016;2023-04-19T20:47:50;10.80;90.50
25360;DHT22;13311;51.386;0.016;2023-04-19T20:52:53;10.80;90.40
25360;DHT22;13311;51.386;0.016;2023-04-19T20:57:54;10.80;90.30
25360;DHT22;13311;51.386;0.016;2023-04-19T21:02:54;10.70;90.30
25360;DHT22;13311;51.386;0.016;2023-04-19T21:07:55;10.80;90.30
25360;DHT22;13311;51.386;0.016;2023-04-19T21:12:56;10.80;90.10
25360;DHT22;13311;51.386;0.016;2023-04-19T21:17:57;10.60;90.30
25360;DHT22;13311;51.386;0.016;2023-04-19T21:22:57;10.60;90.20
25360;DHT22;13311;51.386;0.016;2023-04-19T21:27:59;10.60;90.30
25360;DHT22;13311;51.386;0.016;2023-04-19T21:33:00;10.50;90.40
25360;DHT22;13311;51.386;0.016;2023-04-19T21:38:01;10.60;90.40
25360;DHT22;13311;51.386;0.016;2023-04-19T21:43:02;10.60;90.30
25360;DHT22;13311;51.386;0.016;2023-04-19T21:48:02;10.60;90.40
25360;DHT22;13311;51.386;0.016;2023-04-19T21:53:03;10.60;90.40
25360;DHT22;13311;51.386;0.016;2023-04-19T21:58:04;10.50;90.60
25360;DHT22;13311;51.386;0.016;2023-04-19T22:03:05;10.40;90.90
25360;DHT22;13311;51.386;0.016;2023-04-19T22:08:06;10.40;90.90
25360;DHT22;13311;51.386;0.016;2023-04-19T22:13:07;10.30;91.50
25360;DHT22;13311;51.386;0.016;2023-04-19T22:18:08;10.10;91.90
25360;DHT22;13311;51.386;0.016;2023-04-19T22:23:09;10.10;91.80
25360;DHT22;13311;51.386;0.016;2023-04-19T22:28:09;10.00;91.80
25360;DHT22;13311;51.386;0.016;2023-04-19T22:33:10;9.90;91.90
25360;DHT22;13311;51.386;0.016;2023-04-19T22:38:11;10.00;92.10
25360;DHT22;13311;51.386;0.016;2023-04-19T22:43:12;9.80;92.20
25360;DHT22;13311;51.386;0.016;2023-04-19T22:48:13;9.70;92.30
25360;DHT22;13311;51.386;0.016;2023-04-19T22:53:15;9.80;92.50
25360;DHT22;13311;51.386;0.016;2023-04-19T22:58:17;9.80;92.20
25360;DHT22;13311;51.386;0.016;2023-04-19T23:03:18;9.90;92.20
25360;DHT22;13311;51.386;0.016;2023-04-19T23:08:19;9.90;92.20
25360;DHT22;13311;51.386;0.016;2023-04-19T23:13:20;9.90;92.20
25360;DHT22;13311;51.386;0.016;2023-04-19T23:18:20;9.90;92.20
25360;DHT22;13311;51.386;0.016;2023-04-19T23:23:21;9.80;92.20
25360;DHT22;13311;51.386;0.016;2023-04-19T23:28:22;9.80;92.10
25360;DHT22;13311;51.386;0.016;2023-04-19T23:33:23;9.90;92.10
25360;DHT22;13311;51.386;0.016;2023-04-19T23:38:23;9.80;91.90
25360;DHT22;13311;51.386;0.016;2023-04-19T23:43:24;9.70;91.90
25360;DHT22;13311;51.386;0.016;2023-04-19T23:48:25;9.70;91.90
25360;DHT22;13311;51.386;0.016;2023-04-19T23:53:25;9.70;92.00
25360;DHT22;13311;51.386;0.016;2023-04-19T23:58:26;9.60;92.00
